Aviation Digital Data Service (ADDS)

Output produced by METARs form (1911 UTC 25 June 2017)
found at http://www.aviationweather.gov/adds/metars/
 
LATI 251850Z 14002KT CAVOK 26/18 Q1011 NOSIG
TAF LATI 251700Z 2518/2618 VRB04KT CAVOK 
     TEMPO 2610/2617 30012KT FEW030CB